createdAt,value
2022-12-01T00:01:12.679Z,74.07
2022-12-01T00:03:44.351Z,74.06
2022-12-01T00:06:18.352Z,74.02
2022-12-01T00:09:09.500Z,73.91
2022-12-01T00:11:41.155Z,74.00
2022-12-01T00:14:12.836Z,73.78
2022-12-01T00:16:44.965Z,73.80
2022-12-01T00:19:17.800Z,74.05
2022-12-01T00:21:49.490Z,73.96
2022-12-01T00:24:23.476Z,73.76
2022-12-01T00:26:54.992Z,73.85
2022-12-01T00:29:27.899Z,73.79
2022-12-01T00:31:59.455Z,73.90
2022-12-01T00:34:31.038Z,74.01
2022-12-01T00:37:03.017Z,73.77
2022-12-01T00:39:34.547Z,73.57
2022-12-01T00:42:11.605Z,73.53
2022-12-01T00:44:44.783Z,73.61
2022-12-01T00:47:16.337Z,73.57
2022-12-01T00:49:48.419Z,73.56
2022-12-01T00:52:21.160Z,73.66
2022-12-01T00:54:53.936Z,73.59
2022-12-01T00:57:25.577Z,73.32
2022-12-01T00:59:57.024Z,73.49
2022-12-01T01:02:28.560Z,73.25
2022-12-01T01:05:00.229Z,73.48
2022-12-01T01:07:33.379Z,73.55
2022-12-01T01:10:05.311Z,73.43
2022-12-01T01:12:38.253Z,73.44
2022-12-01T01:15:11.463Z,73.54
2022-12-01T01:17:42.964Z,73.41
2022-12-01T01:20:16.144Z,73.54
2022-12-01T01:22:47.696Z,73.58
2022-12-01T01:25:19.403Z,73.47
2022-12-01T01:27:51.216Z,73.52
2022-12-01T01:30:22.926Z,73.51
2022-12-01T01:32:55.256Z,73.71
2022-12-01T01:35:27.087Z,73.83
2022-12-01T01:37:58.540Z,73.58
2022-12-01T01:40:30.408Z,73.40
2022-12-01T01:43:02.209Z,73.70
2022-12-01T01:45:35.477Z,73.54
2022-12-01T01:48:08.249Z,73.57
2022-12-01T01:50:40.740Z,73.52
2022-12-01T01:53:16.170Z,73.28
2022-12-01T01:55:47.905Z,73.39
2022-12-01T01:58:20.989Z,73.42
2022-12-01T02:00:52.570Z,73.30
2022-12-01T02:03:25.747Z,73.49
2022-12-01T02:06:04.532Z,73.52
2022-12-01T02:08:38.206Z,73.35
2022-12-01T02:11:30.247Z,73.35
2022-12-01T02:14:14.241Z,73.41
2022-12-01T02:16:55.864Z,73.27
2022-12-01T02:19:53.383Z,73.26
2022-12-01T02:22:43.463Z,73.29
2022-12-01T02:25:35.999Z,73.50
2022-12-01T02:28:26.561Z,73.47
2022-12-01T02:31:02.405Z,73.38
2022-12-01T02:33:41.430Z,73.23
2022-12-01T02:36:20.999Z,73.31
2022-12-01T02:38:57.092Z,73.44
2022-12-01T02:41:33.023Z,73.67
2022-12-01T02:44:10.364Z,73.53
2022-12-01T02:46:47.107Z,73.53
2022-12-01T02:49:21.316Z,73.54
2022-12-01T02:51:55.239Z,73.48
2022-12-01T02:54:30.899Z,73.67
2022-12-01T02:57:02.589Z,73.50
2022-12-01T02:59:34.145Z,73.45
2022-12-01T03:02:15.540Z,73.71
2022-12-01T03:04:57.468Z,73.52
2022-12-01T03:07:50.391Z,73.63
2022-12-01T03:10:27.813Z,73.49
2022-12-01T03:13:17.526Z,73.52
2022-12-01T03:15:57.536Z,73.70
2022-12-01T03:18:38.080Z,73.84
2022-12-01T03:21:14.730Z,73.72
2022-12-01T03:23:51.006Z,73.78
2022-12-01T03:26:33.763Z,73.85
2022-12-01T03:29:11.283Z,73.70
2022-12-01T03:31:49.074Z,73.72
2022-12-01T03:34:26.475Z,73.86
2022-12-01T03:37:02.616Z,73.84
2022-12-01T03:39:37.011Z,73.88
2022-12-01T03:42:16.219Z,73.77
2022-12-01T03:44:51.620Z,73.91
2022-12-01T03:47:26.048Z,73.78
2022-12-01T03:50:00.279Z,73.88
2022-12-01T03:52:45.592Z,73.94
2022-12-01T03:55:24.155Z,73.92
2022-12-01T03:58:02.627Z,73.78
2022-12-01T04:00:34.920Z,73.95
2022-12-01T04:03:07.235Z,73.89
2022-12-01T04:05:38.801Z,73.76
2022-12-01T04:08:10.397Z,73.53
2022-12-01T04:10:42.046Z,73.71
2022-12-01T04:13:22.537Z,73.79
2022-12-01T04:15:55.801Z,73.75
2022-12-01T04:18:27.436Z,73.81
2022-12-01T04:20:58.945Z,73.90
2022-12-01T04:23:47.449Z,73.80
2022-12-01T04:26:18.982Z,73.81
2022-12-01T04:28:50.563Z,73.76
2022-12-01T04:31:22.192Z,73.79
2022-12-01T04:33:54.973Z,74.02
2022-12-01T04:36:27.030Z,73.86
2022-12-01T04:38:58.643Z,73.73
2022-12-01T04:41:31.218Z,73.80
2022-12-01T04:44:03.020Z,73.51
2022-12-01T04:46:34.540Z,73.71
2022-12-01T04:49:06.607Z,73.76
2022-12-01T04:51:38.491Z,73.90
2022-12-01T04:54:10.001Z,73.75
2022-12-01T04:56:41.719Z,73.63
2022-12-01T04:59:13.366Z,73.88
2022-12-01T05:01:46.717Z,73.84
2022-12-01T05:04:18.365Z,73.90
2022-12-01T05:06:49.991Z,73.87
2022-12-01T05:09:22.043Z,73.88
2022-12-01T05:11:53.521Z,74.00
2022-12-01T05:14:25.049Z,74.01
2022-12-01T05:16:58.165Z,74.15
2022-12-01T05:19:47.700Z,74.10
2022-12-01T05:22:31.486Z,74.32
2022-12-01T05:25:11.477Z,74.09
2022-12-01T05:27:43.183Z,74.25
2022-12-01T05:30:15.817Z,74.36
2022-12-01T05:32:47.373Z,74.46
2022-12-01T05:35:19.263Z,74.41
2022-12-01T05:37:50.873Z,74.37
2022-12-01T05:40:22.521Z,74.32
2022-12-01T05:42:54.353Z,74.19
2022-12-01T05:45:26.323Z,74.31
2022-12-01T05:47:59.033Z,74.34
2022-12-01T05:50:31.418Z,74.17
2022-12-01T05:53:02.985Z,74.19
2022-12-01T05:55:35.442Z,74.34
2022-12-01T05:58:07.287Z,74.23
2022-12-01T06:00:45.777Z,74.33
2022-12-01T06:03:17.889Z,74.16
2022-12-01T06:05:49.376Z,74.25
2022-12-01T06:08:21.190Z,74.09
2022-12-01T06:10:52.720Z,74.08
2022-12-01T06:13:24.307Z,74.11
2022-12-01T06:16:04.512Z,74.10
2022-12-01T06:18:38.477Z,74.02
2022-12-01T06:21:10.436Z,74.19
2022-12-01T06:23:42.081Z,74.06
2022-12-01T06:26:13.640Z,74.06
2022-12-01T06:28:45.187Z,73.94
2022-12-01T06:31:17.241Z,73.90
2022-12-01T06:33:48.902Z,73.93
2022-12-01T06:36:20.800Z,74.19
2022-12-01T06:38:52.365Z,74.22
2022-12-01T06:41:23.997Z,74.33
2022-12-01T06:43:55.712Z,74.32
2022-12-01T06:46:27.264Z,74.30
2022-12-01T06:48:59.259Z,74.26
2022-12-01T06:51:33.772Z,74.23
2022-12-01T06:54:05.906Z,74.14
2022-12-01T06:56:37.542Z,74.20
2022-12-01T06:59:09.193Z,73.87
2022-12-01T07:01:41.317Z,74.10
2022-12-01T07:04:12.949Z,74.10
2022-12-01T07:06:44.448Z,74.30
2022-12-01T07:09:16.037Z,74.23
2022-12-01T07:11:47.633Z,74.28
2022-12-01T07:14:24.341Z,74.24
2022-12-01T07:16:56.315Z,74.44
2022-12-01T07:19:28.056Z,74.39
2022-12-01T07:21:59.524Z,74.23
2022-12-01T07:24:31.718Z,73.97
2022-12-01T07:27:03.325Z,74.17
2022-12-01T07:29:34.847Z,73.94
2022-12-01T07:32:06.983Z,74.28
2022-12-01T07:34:38.608Z,74.12
2022-12-01T07:37:10.504Z,74.34
2022-12-01T07:39:42.235Z,74.36
2022-12-01T07:42:13.809Z,74.22
2022-12-01T07:44:45.309Z,74.15
2022-12-01T07:47:17.090Z,74.12
2022-12-01T07:49:48.781Z,74.20
2022-12-01T07:52:20.599Z,74.02
2022-12-01T07:54:52.750Z,74.14
2022-12-01T07:57:24.610Z,74.14
2022-12-01T07:59:56.184Z,74.33
2022-12-01T08:02:27.757Z,74.30
2022-12-01T08:04:59.504Z,74.44
2022-12-01T08:07:31.035Z,74.43
2022-12-01T08:10:02.622Z,74.67
2022-12-01T08:12:34.193Z,74.33
2022-12-01T08:15:06.899Z,74.32
2022-12-01T08:17:39.400Z,74.30
2022-12-01T08:20:12.519Z,74.50
2022-12-01T08:22:44.074Z,74.29
2022-12-01T08:25:15.726Z,74.23
2022-12-01T08:27:47.246Z,74.31
2022-12-01T08:30:19.230Z,73.96
2022-12-01T08:32:53.954Z,73.91
2022-12-01T08:35:25.885Z,73.84
2022-12-01T08:37:57.383Z,74.06
2022-12-01T08:40:29.024Z,74.16
2022-12-01T08:43:00.628Z,74.14
2022-12-01T08:45:32.163Z,74.12
2022-12-01T08:48:03.700Z,74.18
2022-12-01T08:50:35.230Z,74.02
2022-12-01T08:53:06.794Z,73.93
2022-12-01T08:55:38.863Z,73.82
2022-12-01T08:58:10.545Z,73.87
2022-12-01T09:00:42.063Z,73.92
2022-12-01T09:03:13.576Z,73.97
2022-12-01T09:05:45.113Z,73.90
2022-12-01T09:08:35.850Z,73.78
2022-12-01T09:11:09.683Z,73.80
2022-12-01T09:13:42.433Z,74.00
2022-12-01T09:16:16.187Z,73.83
2022-12-01T09:18:49.213Z,73.94
2022-12-01T09:21:23.519Z,74.01
2022-12-01T09:23:56.442Z,73.77
2022-12-01T09:26:29.377Z,73.87
2022-12-01T09:29:02.576Z,73.93
2022-12-01T09:31:34.307Z,73.60
2022-12-01T09:34:09.063Z,73.79
2022-12-01T09:36:40.833Z,73.61
2022-12-01T09:39:15.699Z,73.45
2022-12-01T09:41:50.965Z,73.56
2022-12-01T09:44:32.563Z,73.51
2022-12-01T09:47:13.378Z,73.56
2022-12-01T09:49:54.379Z,73.54
2022-12-01T09:52:27.952Z,73.61
2022-12-01T09:54:59.676Z,73.66
2022-12-01T09:57:35.277Z,73.59
2022-12-01T10:00:13.721Z,73.37
2022-12-01T10:02:50.595Z,73.47
2022-12-01T10:05:25.551Z,73.28
2022-12-01T10:08:01.884Z,73.20
2022-12-01T10:10:44.014Z,73.28
2022-12-01T10:13:21.386Z,73.35
2022-12-01T10:15:59.942Z,73.35
2022-12-01T10:18:41.251Z,73.31
2022-12-01T10:21:19.627Z,72.95
2022-12-01T10:24:15.246Z,73.07
2022-12-01T10:26:57.094Z,72.83
2022-12-01T10:29:43.722Z,72.84
2022-12-01T10:32:21.659Z,72.80
2022-12-01T10:34:53.291Z,72.69
2022-12-01T10:37:28.633Z,72.65
2022-12-01T10:40:01.215Z,72.65
2022-12-01T10:42:40.157Z,72.43
2022-12-01T10:45:19.663Z,72.68
2022-12-01T10:48:15.333Z,72.43
2022-12-01T10:50:50.075Z,72.40
2022-12-01T10:53:38.139Z,72.54
2022-12-01T10:56:17.045Z,72.64
2022-12-01T10:58:51.236Z,72.78
2022-12-01T11:01:26.076Z,72.69
2022-12-01T11:04:01.706Z,72.77
2022-12-01T11:06:34.055Z,72.81
2022-12-01T11:09:09.360Z,72.64
2022-12-01T11:11:42.164Z,72.67
2022-12-01T11:14:22.396Z,72.73
2022-12-01T11:16:55.212Z,72.75
2022-12-01T11:19:33.562Z,72.79
2022-12-01T11:22:21.973Z,72.69
2022-12-01T11:25:02.739Z,72.69
2022-12-01T11:27:38.255Z,72.41
2022-12-01T11:30:24.371Z,72.28
2022-12-01T11:32:58.952Z,72.10
2022-12-01T11:35:33.089Z,71.93
2022-12-01T11:38:29.662Z,71.85
2022-12-01T11:41:00.393Z,72.05
2022-12-01T11:43:34.233Z,72.00
2022-12-01T11:46:10.906Z,72.10
2022-12-01T11:48:42.602Z,71.95
2022-12-01T11:51:31.910Z,72.01
2022-12-01T11:54:16.969Z,72.14
2022-12-01T11:57:10.403Z,72.20
2022-12-01T11:59:41.619Z,72.12
2022-12-01T12:02:29.820Z,72.04
2022-12-01T12:05:18.553Z,72.04
2022-12-01T12:07:59.222Z,72.14
2022-12-01T12:10:45.816Z,72.20
2022-12-01T12:13:38.061Z,72.16
2022-12-01T12:16:17.279Z,72.12
2022-12-01T12:19:06.499Z,71.99
2022-12-01T12:21:48.410Z,71.98
2022-12-01T12:24:34.611Z,71.92
2022-12-01T12:27:15.354Z,71.76
2022-12-01T12:30:01.602Z,71.77
2022-12-01T12:32:47.559Z,71.55
2022-12-01T12:35:33.651Z,71.74
2022-12-01T12:38:13.060Z,71.66
2022-12-01T12:40:54.871Z,71.54
2022-12-01T12:43:36.183Z,71.67
2022-12-01T12:46:12.304Z,71.65
2022-12-01T12:51:57.849Z,71.71
2022-12-01T12:54:34.142Z,71.75
2022-12-01T12:57:12.492Z,71.86
2022-12-01T12:59:51.627Z,71.73
2022-12-01T13:02:28.236Z,71.79
2022-12-01T13:05:06.117Z,71.96
2022-12-01T13:07:43.539Z,71.71
2022-12-01T13:10:24.897Z,71.55
2022-12-01T13:13:02.576Z,71.44
2022-12-01T13:15:37.559Z,71.48
2022-12-01T13:18:28.421Z,71.62
2022-12-01T13:21:03.193Z,71.73
2022-12-01T13:23:37.085Z,71.32
2022-12-01T13:26:11.660Z,71.39
2022-12-01T13:28:47.659Z,71.21
2022-12-01T13:31:20.762Z,71.36
2022-12-01T13:34:00.933Z,71.51
2022-12-01T13:36:49.216Z,71.44
2022-12-01T13:39:23.752Z,71.24
2022-12-01T13:42:04.129Z,71.28
2022-12-01T13:44:41.593Z,71.41
2022-12-01T13:47:40.033Z,71.47
2022-12-01T13:50:46.574Z,71.32
2022-12-01T13:53:28.521Z,71.21
2022-12-01T13:56:05.479Z,71.09
2022-12-01T13:58:48.964Z,71.40
2022-12-01T14:01:48.192Z,71.44
2022-12-01T14:04:31.550Z,71.12
2022-12-01T14:07:39.855Z,71.32
2022-12-01T14:10:24.032Z,71.32
2022-12-01T14:12:57.689Z,71.32
2022-12-01T14:15:42.826Z,71.17
2022-12-01T14:18:41.454Z,71.20
2022-12-01T14:21:14.754Z,71.22
2022-12-01T14:26:49.137Z,70.94
2022-12-01T14:29:31.846Z,70.92
2022-12-01T14:32:26.125Z,71.01
2022-12-01T14:35:02.574Z,71.06
2022-12-01T14:37:50.133Z,71.08
2022-12-01T14:40:26.871Z,71.15
2022-12-01T14:43:18.514Z,71.26
2022-12-01T14:46:12.789Z,71.13
2022-12-01T14:48:46.801Z,71.14
2022-12-01T14:51:28.284Z,71.15
2022-12-01T14:54:02.381Z,71.30
2022-12-01T14:56:35.278Z,71.29
2022-12-01T14:59:21.247Z,71.20
2022-12-01T15:01:56.108Z,71.18
2022-12-01T15:04:27.861Z,71.07
2022-12-01T15:06:59.678Z,71.30
2022-12-01T15:09:34.469Z,71.18
2022-12-01T15:12:24.513Z,71.15
2022-12-01T15:14:56.162Z,71.15
2022-12-01T15:17:34.381Z,71.07
2022-12-01T15:20:26.960Z,70.99
2022-12-01T15:22:59.620Z,70.96
2022-12-01T15:25:36.970Z,70.89
2022-12-01T15:28:16.068Z,70.93
2022-12-01T15:30:49.664Z,70.80
2022-12-01T15:33:26.932Z,70.86
2022-12-01T15:36:01.170Z,70.88
2022-12-01T15:38:34.557Z,70.84
2022-12-01T15:44:03.573Z,70.81
2022-12-01T15:46:36.221Z,70.65
2022-12-01T15:49:17.791Z,70.67
2022-12-01T15:51:51.549Z,70.87
2022-12-01T15:54:27.470Z,70.74
2022-12-01T15:57:01.115Z,70.74
2022-12-01T15:59:34.480Z,70.69
2022-12-01T16:02:22.572Z,70.71
2022-12-01T16:05:03.473Z,70.64
2022-12-01T16:08:12.242Z,70.44
2022-12-01T16:10:48.120Z,70.77
2022-12-01T16:13:45.177Z,70.66
2022-12-01T16:16:39.769Z,70.59
2022-12-01T16:19:27.981Z,70.56
2022-12-01T16:22:14.550Z,70.66
2022-12-01T16:24:51.022Z,70.85
2022-12-01T16:27:25.776Z,70.66
2022-12-01T16:30:00.216Z,70.57
2022-12-01T16:32:38.231Z,70.59
2022-12-01T16:35:26.504Z,70.64
2022-12-01T16:37:58.683Z,70.65
2022-12-01T16:40:30.529Z,70.67
2022-12-01T16:43:02.230Z,70.46
2022-12-01T16:45:36.008Z,70.55
2022-12-01T16:48:09.515Z,70.49
2022-12-01T16:50:40.476Z,70.68
2022-12-01T16:53:12.956Z,70.57
2022-12-01T16:55:48.500Z,70.68
2022-12-01T16:58:20.308Z,70.63
2022-12-01T17:00:53.408Z,70.66
2022-12-01T17:03:28.272Z,70.59
2022-12-01T17:06:02.911Z,70.69
2022-12-01T17:08:34.672Z,70.69
2022-12-01T17:11:08.047Z,70.67
2022-12-01T17:13:39.560Z,70.60
2022-12-01T17:16:18.446Z,70.52
2022-12-01T17:18:50.507Z,70.42
2022-12-01T17:21:22.044Z,70.53
2022-12-01T17:23:53.666Z,70.58
2022-12-01T17:26:27.315Z,70.36
2022-12-01T17:28:58.936Z,70.42
2022-12-01T17:31:30.768Z,70.32
2022-12-01T17:34:02.521Z,70.51
2022-12-01T17:36:34.076Z,70.45
2022-12-01T17:39:06.252Z,70.28
2022-12-01T17:41:37.780Z,70.30
2022-12-01T17:44:09.471Z,70.32
2022-12-01T17:46:41.921Z,70.45
2022-12-01T17:49:13.576Z,70.43
2022-12-01T17:51:45.239Z,70.43
2022-12-01T17:54:17.185Z,70.37
2022-12-01T17:56:49.021Z,70.49
2022-12-01T17:59:21.598Z,70.53
2022-12-01T18:01:53.301Z,70.76
2022-12-01T18:04:24.961Z,70.60
2022-12-01T18:06:56.452Z,70.80
2022-12-01T18:09:28.105Z,70.69
2022-12-01T18:11:59.595Z,70.69
2022-12-01T18:14:32.701Z,70.60
2022-12-01T18:17:04.424Z,70.54
2022-12-01T18:19:36.358Z,70.76
2022-12-01T18:22:07.841Z,70.77
2022-12-01T18:24:39.522Z,70.72
2022-12-01T18:27:11.049Z,70.64
2022-12-01T18:29:42.782Z,70.58
2022-12-01T18:32:14.299Z,70.71
2022-12-01T18:34:46.151Z,70.59
2022-12-01T18:37:17.763Z,70.76
2022-12-01T18:39:49.352Z,70.75
2022-12-01T18:42:20.842Z,70.79
2022-12-01T18:44:52.746Z,70.64
2022-12-01T18:47:24.512Z,70.73
2022-12-01T18:49:56.021Z,70.49
2022-12-01T18:52:27.662Z,70.66
2022-12-01T18:54:59.195Z,70.78
2022-12-01T18:57:31.583Z,70.88
2022-12-01T19:00:04.515Z,70.88
2022-12-01T19:02:36.270Z,71.01
2022-12-01T19:05:08.822Z,70.91
2022-12-01T19:07:40.383Z,71.04
2022-12-01T19:10:13.392Z,71.07
2022-12-01T19:12:44.932Z,71.12
2022-12-01T19:15:16.454Z,70.99
2022-12-01T19:17:47.952Z,71.17
2022-12-01T19:20:19.709Z,71.13
2022-12-01T19:22:51.284Z,71.20
2022-12-01T19:25:22.860Z,71.16
2022-12-01T19:27:54.466Z,71.19
2022-12-01T19:30:25.960Z,71.26
2022-12-01T19:32:57.486Z,71.33
2022-12-01T19:35:29.070Z,71.35
2022-12-01T19:38:00.552Z,71.25
2022-12-01T19:40:32.363Z,71.44
2022-12-01T19:43:03.945Z,71.43
2022-12-01T19:45:37.469Z,71.61
2022-12-01T19:48:07.995Z,71.65
2022-12-01T19:50:39.811Z,71.79
2022-12-01T19:53:11.481Z,71.80
2022-12-01T19:55:43.045Z,71.71
2022-12-01T19:58:14.535Z,71.76
2022-12-01T20:00:46.824Z,71.90
2022-12-01T20:03:18.419Z,71.83
2022-12-01T20:05:49.943Z,71.65
2022-12-01T20:08:21.570Z,71.88
2022-12-01T20:10:53.156Z,71.76
2022-12-01T20:13:24.648Z,71.97
2022-12-01T20:16:01.489Z,71.94
2022-12-01T20:18:33.672Z,72.02
2022-12-01T20:21:12.567Z,71.94
2022-12-01T20:23:44.560Z,72.09
2022-12-01T20:26:17.620Z,72.06
2022-12-01T20:28:51.138Z,71.78
2022-12-01T20:31:25.521Z,71.98
2022-12-01T20:33:59.563Z,71.85
2022-12-01T20:36:31.684Z,71.84
2022-12-01T20:39:03.786Z,71.77
2022-12-01T20:41:35.652Z,71.92
2022-12-01T20:44:08.141Z,71.79
2022-12-01T20:46:40.993Z,71.95
2022-12-01T20:49:13.544Z,71.83
2022-12-01T20:51:45.844Z,71.76
2022-12-01T20:54:27.858Z,71.86
2022-12-01T20:57:01.099Z,72.00
2022-12-01T20:59:32.858Z,72.10
2022-12-01T21:02:04.527Z,72.16
2022-12-01T21:04:36.151Z,71.97
2022-12-01T21:07:07.648Z,72.16
2022-12-01T21:09:39.433Z,71.93
2022-12-01T21:12:33.453Z,72.06
2022-12-01T21:15:16.061Z,72.26
2022-12-01T21:17:51.981Z,72.08
2022-12-01T21:20:29.464Z,72.10
2022-12-01T21:23:07.394Z,72.08
2022-12-01T21:25:40.491Z,72.25
2022-12-01T21:28:19.799Z,72.15
2022-12-01T21:30:53.556Z,72.05
2022-12-01T21:33:34.618Z,71.97
2022-12-01T21:36:14.820Z,72.05
2022-12-01T21:38:48.172Z,72.23
2022-12-01T21:41:25.215Z,72.13
2022-12-01T21:44:02.191Z,71.98
2022-12-01T21:46:33.813Z,72.16
2022-12-01T21:49:10.127Z,72.30
2022-12-01T21:51:41.978Z,72.38
2022-12-01T21:54:16.985Z,72.34
2022-12-01T21:56:49.325Z,72.58
2022-12-01T21:59:23.262Z,72.49
2022-12-01T22:01:57.127Z,72.48
2022-12-01T22:04:32.973Z,72.18
2022-12-01T22:07:05.212Z,72.43
2022-12-01T22:09:37.746Z,72.41
2022-12-01T22:12:21.425Z,72.39
2022-12-01T22:14:54.394Z,72.36
2022-12-01T22:17:25.956Z,72.38
2022-12-01T22:19:58.799Z,72.44
2022-12-01T22:22:32.462Z,72.43
2022-12-01T22:25:23.545Z,72.38
2022-12-01T22:27:56.071Z,72.38
2022-12-01T22:30:27.981Z,72.28
2022-12-01T22:33:04.180Z,71.97
2022-12-01T22:35:39.775Z,72.22
2022-12-01T22:38:32.945Z,72.22
2022-12-01T22:41:06.797Z,72.36
2022-12-01T22:43:45.393Z,72.37
2022-12-01T22:46:32.633Z,72.38
2022-12-01T22:49:22.200Z,72.20
2022-12-01T22:51:56.201Z,72.12
2022-12-01T22:54:35.238Z,72.16
2022-12-01T22:57:19.535Z,72.29
2022-12-01T22:59:51.303Z,72.11
2022-12-01T23:02:28.148Z,72.21
2022-12-01T23:05:02.652Z,71.98
2022-12-01T23:07:36.634Z,72.09
2022-12-01T23:10:14.443Z,72.37
2022-12-01T23:12:47.458Z,72.05
2022-12-01T23:15:24.609Z,72.26
2022-12-01T23:17:56.942Z,72.25
2022-12-01T23:20:34.301Z,72.27
2022-12-01T23:23:09.604Z,72.35
2022-12-01T23:25:42.692Z,72.28
2022-12-01T23:28:15.461Z,72.24
2022-12-01T23:30:48.786Z,72.10
2022-12-01T23:33:23.101Z,72.06
2022-12-01T23:35:58.951Z,72.45
2022-12-01T23:38:33.122Z,72.33
2022-12-01T23:41:08.425Z,72.60
2022-12-01T23:43:43.873Z,72.61
2022-12-01T23:46:19.180Z,72.49
2022-12-01T23:48:53.661Z,72.41
2022-12-01T23:51:27.770Z,72.37
2022-12-01T23:54:02.135Z,72.38
2022-12-01T23:56:34.227Z,72.37
2022-12-01T23:59:07.205Z,72.41
